createdAt,value
2022-11-14T00:01:35.962Z,95753.19
2022-11-14T00:06:47.655Z,95749.69
2022-11-14T00:11:50.332Z,95740.13
2022-11-14T00:16:52.934Z,95732.28
2022-11-14T00:21:55.533Z,95723.75
2022-11-14T00:26:58.513Z,95719.75
2022-11-14T00:32:01.327Z,95721.06
2022-11-14T00:37:03.941Z,95721.41
2022-11-14T00:42:06.539Z,95702.97
2022-11-14T00:47:09.178Z,95714.91
2022-11-14T00:52:11.983Z,95727.09
2022-11-14T00:57:14.639Z,95732.75
2022-11-14T01:02:17.589Z,95738.44
2022-11-14T01:07:20.266Z,95733.94
2022-11-14T01:12:22.937Z,95724.66
2022-11-14T01:17:28.505Z,95730.09
2022-11-14T01:22:31.903Z,95741.19
2022-11-14T01:27:34.974Z,95748.91
2022-11-14T01:32:37.675Z,95734.72
2022-11-14T01:37:40.948Z,95739.56
2022-11-14T01:42:43.574Z,95738.63
2022-11-14T01:47:46.276Z,95712.78
2022-11-14T01:52:48.851Z,95706.31
2022-11-14T01:57:51.453Z,95703.50
2022-11-14T02:03:04.038Z,95697.34
2022-11-14T02:08:06.658Z,95697.38
2022-11-14T02:13:09.788Z,95697.63
2022-11-14T02:18:12.475Z,95694.47
2022-11-14T02:23:17.129Z,95675.28
2022-11-14T02:28:20.624Z,95677.41
2022-11-14T02:33:23.209Z,95690.44
2022-11-14T02:38:25.845Z,95702.94
2022-11-14T02:43:28.543Z,95705.59
2022-11-14T02:48:31.524Z,95699.25
2022-11-14T02:53:36.558Z,95688.72
2022-11-14T02:58:39.186Z,95674.81
2022-11-14T03:03:42.123Z,95657.91
2022-11-14T03:08:44.837Z,95663.75
2022-11-14T03:13:47.457Z,95654.78
2022-11-14T03:18:50.088Z,95655.78
2022-11-14T03:23:52.829Z,95653.84
2022-11-14T03:28:56.171Z,95668.63
2022-11-14T03:33:58.796Z,95661.47
2022-11-14T03:39:01.356Z,95659.28
2022-11-14T03:44:04.455Z,95661.25
2022-11-14T03:49:07.639Z,95654.66
2022-11-14T03:54:11.801Z,95661.69
2022-11-14T03:59:14.935Z,95650.75
2022-11-14T04:04:19.180Z,95665.41
2022-11-14T04:09:22.687Z,95674.19
2022-11-14T04:14:25.799Z,95675.56
2022-11-14T04:19:28.890Z,95693.03
2022-11-14T04:24:31.955Z,95701.00
2022-11-14T04:29:35.012Z,95674.06
2022-11-14T04:34:38.196Z,95670.72
2022-11-14T04:39:41.609Z,95671.06
2022-11-14T04:44:44.740Z,95656.75
2022-11-14T04:49:47.853Z,95662.16
2022-11-14T04:54:50.948Z,95661.59
2022-11-14T04:59:54.173Z,95665.72
2022-11-14T05:04:57.249Z,95666.69
2022-11-14T05:10:00.484Z,95657.41
2022-11-14T05:15:03.593Z,95653.50
2022-11-14T05:20:06.842Z,95652.34
2022-11-14T05:25:09.957Z,95654.78
2022-11-14T05:30:13.160Z,95656.88
2022-11-14T05:35:16.692Z,95650.03
2022-11-14T05:40:19.999Z,95658.50
2022-11-14T05:45:23.187Z,95666.44
2022-11-14T05:50:26.923Z,95678.72
2022-11-14T05:55:30.052Z,95698.13
2022-11-14T06:00:39.456Z,95690.94
2022-11-14T06:05:45.592Z,95698.47
2022-11-14T06:10:48.716Z,95709.09
2022-11-14T06:15:51.852Z,95713.56
2022-11-14T06:20:57.744Z,95722.69
2022-11-14T06:26:01.652Z,95716.88
2022-11-14T06:31:04.928Z,95716.78
2022-11-14T06:36:08.070Z,95702.38
2022-11-14T06:41:11.135Z,95709.00
2022-11-14T06:46:14.286Z,95706.91
2022-11-14T06:51:17.880Z,95717.97
2022-11-14T06:56:21.246Z,95731.16
2022-11-14T07:01:25.891Z,95722.84
2022-11-14T07:06:29.056Z,95718.81
2022-11-14T07:11:33.176Z,95699.63
2022-11-14T07:16:36.429Z,95705.84
2022-11-14T07:21:39.660Z,95704.00
2022-11-14T07:26:42.760Z,95699.81
2022-11-14T07:31:46.003Z,95705.75
2022-11-14T07:36:50.620Z,95717.97
2022-11-14T07:41:54.015Z,95716.63
2022-11-14T07:46:57.272Z,95718.34
2022-11-14T07:52:00.641Z,95714.41
2022-11-14T07:57:03.784Z,95700.88
2022-11-14T08:02:06.961Z,95688.88
2022-11-14T08:07:10.093Z,95683.19
2022-11-14T08:12:13.765Z,95675.69
2022-11-14T08:17:17.233Z,95675.34
2022-11-14T08:22:20.429Z,95682.16
2022-11-14T08:27:23.530Z,95671.41
2022-11-14T08:32:26.636Z,95659.53
2022-11-14T08:37:29.732Z,95671.06
2022-11-14T08:42:32.941Z,95662.88
2022-11-14T08:47:36.602Z,95679.50
2022-11-14T08:52:39.872Z,95684.81
2022-11-14T08:57:49.057Z,95681.59
2022-11-14T09:02:52.797Z,95670.25
2022-11-14T09:08:00.460Z,95666.69
2022-11-14T09:13:03.741Z,95658.06
2022-11-14T09:18:06.911Z,95645.22
2022-11-14T09:23:10.159Z,95651.38
2022-11-14T09:28:13.385Z,95643.72
2022-11-14T09:33:16.483Z,95651.03
2022-11-14T09:38:19.562Z,95650.72
2022-11-14T09:43:22.621Z,95664.94
2022-11-14T09:48:31.233Z,95669.75
2022-11-14T09:53:34.635Z,95663.63
2022-11-14T09:58:37.875Z,95667.16
2022-11-14T10:03:42.654Z,95666.44
2022-11-14T10:08:45.889Z,95667.28
2022-11-14T10:13:49.630Z,95662.13
2022-11-14T10:18:52.744Z,95669.22
2022-11-14T10:23:55.822Z,95675.28
2022-11-14T10:28:59.334Z,95662.59
2022-11-14T10:34:02.649Z,95650.88
2022-11-14T10:39:05.816Z,95657.28
2022-11-14T10:44:08.977Z,95654.63
2022-11-14T10:49:12.103Z,95657.09
2022-11-14T10:54:15.355Z,95670.47
2022-11-14T10:59:18.541Z,95671.31
2022-11-14T11:04:22.027Z,95674.00
2022-11-14T11:09:45.718Z,95683.66
2022-11-14T11:14:49.385Z,95691.56
2022-11-14T11:19:52.484Z,95706.00
2022-11-14T11:24:55.562Z,95707.75
2022-11-14T11:29:59.036Z,95718.75
2022-11-14T11:35:02.168Z,95730.28
2022-11-14T11:40:07.481Z,95738.25
2022-11-14T11:45:10.539Z,95732.38
2022-11-14T11:50:13.642Z,95744.75
2022-11-14T11:55:19.881Z,95733.63
2022-11-14T12:00:23.111Z,95731.47
2022-11-14T12:05:26.172Z,95723.72
2022-11-14T12:10:29.906Z,95727.06
2022-11-14T12:15:33.073Z,95719.56
2022-11-14T12:20:36.117Z,95708.78
2022-11-14T12:25:39.496Z,95724.13
2022-11-14T12:30:42.645Z,95727.22
2022-11-14T12:35:45.761Z,95727.38
2022-11-14T12:40:48.960Z,95735.47
2022-11-14T12:45:52.087Z,95729.84
2022-11-14T12:50:55.167Z,95732.09
2022-11-14T12:55:58.407Z,95737.22
2022-11-14T13:01:02.232Z,95736.69
2022-11-14T13:06:05.332Z,95735.41
2022-11-14T13:11:08.390Z,95730.84
2022-11-14T13:16:34.307Z,95737.84
2022-11-14T13:21:49.559Z,95725.53
2022-11-14T13:26:52.693Z,95717.47
2022-11-14T13:31:55.772Z,95723.13
2022-11-14T13:36:58.848Z,95715.00
2022-11-14T13:42:02.027Z,95707.72
2022-11-14T13:47:09.511Z,95721.44
2022-11-14T13:52:12.646Z,95713.66
2022-11-14T13:57:16.100Z,95714.75
2022-11-14T14:02:19.505Z,95712.63
2022-11-14T14:07:22.624Z,95708.34
2022-11-14T14:12:25.804Z,95709.41
2022-11-14T14:17:28.980Z,95702.44
2022-11-14T14:22:32.109Z,95703.25
2022-11-14T14:27:35.340Z,95702.97
2022-11-14T14:32:38.551Z,95709.66
2022-11-14T14:37:45.215Z,95706.41
2022-11-14T14:42:49.199Z,95719.53
2022-11-14T14:47:53.434Z,95712.81
2022-11-14T14:52:56.633Z,95716.50
2022-11-14T14:57:59.805Z,95719.41
2022-11-14T15:03:02.871Z,95717.78
2022-11-14T15:08:05.919Z,95720.34
2022-11-14T15:13:09.068Z,95718.97
2022-11-14T15:18:12.309Z,95721.25
2022-11-14T15:23:15.514Z,95719.63
2022-11-14T15:28:18.728Z,95726.44
2022-11-14T15:33:21.826Z,95725.81
2022-11-14T15:43:50.234Z,95729.78
2022-11-14T15:48:53.437Z,95723.94
2022-11-14T15:53:56.661Z,95720.41
2022-11-14T15:59:04.379Z,95718.53
2022-11-14T16:04:07.452Z,95719.50
2022-11-14T16:09:10.505Z,95715.38
2022-11-14T16:14:13.651Z,95719.78
2022-11-14T16:19:17.153Z,95725.72
2022-11-14T16:24:20.234Z,95711.56
2022-11-14T16:29:24.416Z,95720.00
2022-11-14T16:34:27.563Z,95717.78
2022-11-14T16:39:30.723Z,95724.53
2022-11-14T16:44:42.862Z,95727.78
2022-11-14T16:49:50.007Z,95732.56
2022-11-14T16:54:53.036Z,95736.75
2022-11-14T16:59:58.107Z,95736.75
2022-11-14T17:05:01.676Z,95728.78
2022-11-14T17:10:05.362Z,95722.53
2022-11-14T17:15:08.504Z,95724.06
2022-11-14T17:20:11.914Z,95734.38
2022-11-14T17:25:15.332Z,95730.56
2022-11-14T17:30:18.469Z,95726.13
2022-11-14T17:35:21.620Z,95725.06
2022-11-14T17:40:25.221Z,95733.34
2022-11-14T17:45:28.324Z,95724.69
2022-11-14T17:50:37.759Z,95725.22
2022-11-14T17:55:41.143Z,95729.56
2022-11-14T18:00:44.233Z,95726.31
2022-11-14T18:05:47.300Z,95724.16
2022-11-14T18:10:50.870Z,95721.91
2022-11-14T18:15:53.969Z,95730.75
2022-11-14T18:20:57.060Z,95724.56
2022-11-14T18:26:00.319Z,95726.25
2022-11-14T18:31:07.238Z,95727.97
2022-11-14T18:36:11.415Z,95726.59
2022-11-14T18:41:14.507Z,95730.50
2022-11-14T18:46:17.604Z,95733.81
2022-11-14T18:51:20.819Z,95730.00
2022-11-14T18:56:25.396Z,95725.47
2022-11-14T19:01:29.633Z,95721.56
2022-11-14T19:06:33.001Z,95724.66
2022-11-14T19:11:53.840Z,95729.03
2022-11-14T19:16:56.927Z,95721.94
2022-11-14T19:22:00.400Z,95724.47
2022-11-14T19:27:03.621Z,95738.59
2022-11-14T19:32:06.695Z,95741.34
2022-11-14T19:37:10.368Z,95742.00
2022-11-14T19:42:14.699Z,95739.41
2022-11-14T19:47:17.812Z,95743.19
2022-11-14T19:52:21.006Z,95745.22
2022-11-14T19:57:24.527Z,95735.69
2022-11-14T20:02:29.433Z,95734.56
2022-11-14T20:07:33.064Z,95740.94
2022-11-14T20:12:36.202Z,95737.78
2022-11-14T20:17:39.502Z,95733.25
2022-11-14T20:22:43.213Z,95724.44
2022-11-14T20:27:46.332Z,95729.69
2022-11-14T20:32:49.491Z,95734.22
2022-11-14T20:37:52.578Z,95727.19
2022-11-14T20:43:00.403Z,95724.50
2022-11-14T20:48:03.656Z,95709.19
2022-11-14T20:53:06.759Z,95716.25
2022-11-14T20:58:09.987Z,95714.72
2022-11-14T21:03:13.277Z,95711.03
2022-11-14T21:08:17.512Z,95706.34
2022-11-14T21:13:38.433Z,95706.44
2022-11-14T21:18:45.206Z,95707.97
2022-11-14T21:23:50.970Z,95707.56
2022-11-14T21:28:54.047Z,95694.38
2022-11-14T21:33:57.731Z,95688.47
2022-11-14T21:39:00.801Z,95682.19
2022-11-14T21:44:04.398Z,95679.41
2022-11-14T21:49:07.448Z,95678.91
2022-11-14T21:54:10.856Z,95674.47
2022-11-14T21:59:15.120Z,95671.81
2022-11-14T22:04:18.903Z,95680.88
2022-11-14T22:09:22.209Z,95676.13
2022-11-14T22:14:25.374Z,95676.94
2022-11-14T22:19:28.447Z,95675.56
2022-11-14T22:24:32.258Z,95682.03
2022-11-14T22:29:35.552Z,95683.69
2022-11-14T22:34:38.607Z,95688.63
2022-11-14T22:39:41.706Z,95684.84
2022-11-14T22:44:44.765Z,95693.53
2022-11-14T22:49:47.905Z,95684.25
2022-11-14T22:54:51.049Z,95690.31
2022-11-14T22:59:54.172Z,95687.97
2022-11-14T23:04:57.231Z,95675.25
2022-11-14T23:10:00.464Z,95679.31
2022-11-14T23:15:03.565Z,95674.22
2022-11-14T23:20:06.642Z,95673.19
2022-11-14T23:25:09.755Z,95669.06
2022-11-14T23:30:12.856Z,95670.69
2022-11-14T23:35:16.318Z,95668.03
2022-11-14T23:40:19.339Z,95661.22
2022-11-14T23:45:22.420Z,95659.59
2022-11-14T23:50:25.477Z,95661.34
2022-11-14T23:55:28.523Z,95655.22
